createdAt,value
2017-07-29T00:00:33.970Z,14.93
2017-07-29T00:01:34.294Z,14.86
2017-07-29T00:02:34.270Z,14.8
2017-07-29T00:03:34.261Z,14.85
2017-07-29T00:04:34.252Z,14.79
2017-07-29T00:05:33.929Z,14.86
2017-07-29T00:06:33.922Z,14.85
2017-07-29T00:07:33.928Z,14.85
2017-07-29T00:08:33.592Z,14.85
2017-07-29T00:09:34.228Z,14.79
2017-07-29T00:10:33.909Z,14.7
2017-07-29T00:11:34.221Z,14.69
2017-07-29T00:12:34.210Z,14.75
2017-07-29T00:13:34.216Z,14.67
2017-07-29T00:14:34.205Z,14.66
2017-07-29T00:15:34.199Z,14.69
2017-07-29T00:16:33.876Z,14.69
2017-07-29T00:17:33.893Z,14.61
2017-07-29T00:18:34.185Z,14.75
2017-07-29T00:19:34.191Z,14.7
2017-07-29T00:20:34.174Z,14.75
2017-07-29T00:21:34.167Z,14.79
2017-07-29T00:22:33.868Z,14.67
2017-07-29T00:23:33.892Z,14.77
2017-07-29T00:24:34.153Z,14.7
2017-07-29T00:25:33.836Z,14.77
2017-07-29T00:26:34.170Z,14.82
2017-07-29T00:27:34.141Z,14.82
2017-07-29T00:28:34.144Z,14.89
2017-07-29T00:29:34.129Z,14.85
2017-07-29T00:30:33.817Z,14.89
2017-07-29T00:31:33.798Z,14.83
2017-07-29T00:32:34.130Z,14.94
2017-07-29T00:33:33.812Z,14.94
2017-07-29T00:34:33.788Z,14.89
2017-07-29T00:35:33.785Z,14.95
2017-07-29T00:36:34.117Z,14.97
2017-07-29T00:37:34.091Z,14.94
2017-07-29T00:38:34.080Z,14.94
2017-07-29T00:39:33.761Z,14.95
2017-07-29T00:40:34.074Z,14.87
2017-07-29T00:41:34.085Z,14.97
2017-07-29T00:42:34.062Z,14.94
2017-07-29T00:43:34.056Z,14.9
2017-07-29T00:44:34.054Z,14.94
2017-07-29T00:45:33.754Z,14.9
2017-07-29T00:46:33.737Z,15
2017-07-29T00:47:34.093Z,14.93
2017-07-29T00:48:34.032Z,14.83
2017-07-29T00:49:34.038Z,14.8
2017-07-29T00:50:34.042Z,14.87
2017-07-29T00:51:34.021Z,14.9
2017-07-29T00:52:34.014Z,14.9
2017-07-29T00:53:34.026Z,14.87
2017-07-29T00:54:33.693Z,14.8
2017-07-29T00:55:33.677Z,14.83
2017-07-29T00:56:33.675Z,14.83
2017-07-29T00:57:33.681Z,14.79
2017-07-29T00:58:33.987Z,14.79
2017-07-29T00:59:33.658Z,14.71
2017-07-29T01:00:33.657Z,14.7
2017-07-29T01:01:33.654Z,14.71
2017-07-29T01:02:33.983Z,14.7
2017-07-29T01:03:33.968Z,14.75
2017-07-29T01:04:33.636Z,14.69
2017-07-29T01:05:33.628Z,14.77
2017-07-29T01:06:33.645Z,14.67
2017-07-29T01:07:33.948Z,14.63
2017-07-29T01:08:33.315Z,14.69
2017-07-29T01:09:33.293Z,14.66
2017-07-29T01:10:33.638Z,14.69
2017-07-29T01:11:33.283Z,14.64
2017-07-29T01:12:33.279Z,14.66
2017-07-29T01:13:33.601Z,14.66
2017-07-29T01:14:33.624Z,14.66
2017-07-29T01:15:33.912Z,14.69
2017-07-29T01:16:33.577Z,14.67
2017-07-29T01:17:33.890Z,14.66
2017-07-29T01:18:33.568Z,14.69
2017-07-29T01:19:33.898Z,14.74
2017-07-29T01:20:33.876Z,14.63
2017-07-29T01:21:33.243Z,14.66
2017-07-29T01:22:33.864Z,14.64
2017-07-29T01:23:33.857Z,14.69
2017-07-29T01:24:33.863Z,14.64
2017-07-29T01:25:33.849Z,14.63
2017-07-29T01:26:33.862Z,14.64
2017-07-29T01:27:33.837Z,14.69
2017-07-29T01:28:33.872Z,14.74
2017-07-29T01:29:33.827Z,14.74
2017-07-29T01:30:33.825Z,14.66
2017-07-29T01:31:33.834Z,14.71
2017-07-29T01:32:33.841Z,14.69
2017-07-29T01:33:33.845Z,14.69
2017-07-29T01:34:33.805Z,14.69
2017-07-29T01:35:33.798Z,14.57
2017-07-29T01:36:33.798Z,14.64
2017-07-29T01:37:33.785Z,14.59
2017-07-29T01:38:33.783Z,14.74
2017-07-29T01:39:33.780Z,14.64
2017-07-29T01:40:33.774Z,14.71
2017-07-29T01:41:33.147Z,14.64
2017-07-29T01:42:33.461Z,14.7
2017-07-29T01:43:33.437Z,14.75
2017-07-29T01:44:33.762Z,14.63
2017-07-29T01:45:33.747Z,14.67
2017-07-29T01:46:33.758Z,14.69
2017-07-29T01:47:33.418Z,14.69
2017-07-29T01:48:33.753Z,14.69
2017-07-29T01:49:33.759Z,14.7
2017-07-29T01:50:33.741Z,14.8
2017-07-29T01:51:33.398Z,14.74
2017-07-29T01:52:33.072Z,14.71
2017-07-29T01:53:33.407Z,14.71
2017-07-29T01:54:33.705Z,14.86
2017-07-29T01:55:33.059Z,14.71
2017-07-29T01:56:33.376Z,14.75
2017-07-29T01:57:33.707Z,14.79
2017-07-29T01:58:33.379Z,14.83
2017-07-29T01:59:33.732Z,14.77
2017-07-29T02:00:33.351Z,14.74
2017-07-29T02:01:33.682Z,14.79
2017-07-29T02:02:33.676Z,14.79
2017-07-29T02:03:33.344Z,14.82
2017-07-29T02:04:33.344Z,14.74
2017-07-29T02:05:33.327Z,14.79
2017-07-29T02:06:33.641Z,14.82
2017-07-29T02:07:33.317Z,14.67
2017-07-29T02:08:33.698Z,14.69
2017-07-29T02:09:33.630Z,14.69
2017-07-29T02:10:33.629Z,14.67
2017-07-29T02:11:33.322Z,14.71
2017-07-29T02:12:32.973Z,14.7
2017-07-29T02:13:32.988Z,14.74
2017-07-29T02:14:33.605Z,14.69
2017-07-29T02:15:33.618Z,14.67
2017-07-29T02:16:33.605Z,14.77
2017-07-29T02:17:33.603Z,14.74
2017-07-29T02:18:33.265Z,14.74
2017-07-29T02:19:33.274Z,14.71
2017-07-29T02:20:33.577Z,14.82
2017-07-29T02:21:33.272Z,14.85
2017-07-29T02:22:33.244Z,14.74
2017-07-29T02:23:32.918Z,14.82
2017-07-29T02:24:33.578Z,14.71
2017-07-29T02:25:33.237Z,14.7
2017-07-29T02:26:33.551Z,14.79
2017-07-29T02:27:33.222Z,14.82
2017-07-29T02:28:33.216Z,14.77
2017-07-29T02:29:33.557Z,14.7
2017-07-29T02:30:33.526Z,14.71
2017-07-29T02:31:33.534Z,14.8
2017-07-29T02:32:33.517Z,14.77
2017-07-29T02:33:33.190Z,14.77
2017-07-29T02:34:33.534Z,14.82
2017-07-29T02:35:33.501Z,14.71
2017-07-29T02:36:33.180Z,14.77
2017-07-29T02:37:33.180Z,14.74
2017-07-29T02:38:35.738Z,14.75
2017-07-29T02:39:33.493Z,14.77
2017-07-29T02:40:32.837Z,14.74
2017-07-29T02:41:33.482Z,14.82
2017-07-29T02:42:33.145Z,14.75
2017-07-29T02:43:33.460Z,14.75
2017-07-29T02:44:33.455Z,14.83
2017-07-29T02:45:33.451Z,14.79
2017-07-29T02:46:33.444Z,14.82
2017-07-29T02:47:33.120Z,14.87
2017-07-29T02:48:33.143Z,14.86
2017-07-29T02:49:33.111Z,14.86
2017-07-29T02:50:33.425Z,14.85
2017-07-29T02:51:33.102Z,14.85
2017-07-29T02:52:33.445Z,14.94
2017-07-29T02:53:33.090Z,15
2017-07-29T02:54:33.102Z,15
2017-07-29T02:55:32.777Z,14.87
2017-07-29T02:56:33.075Z,15.04
2017-07-29T02:57:33.387Z,15
2017-07-29T02:58:33.390Z,14.89
2017-07-29T02:59:33.380Z,14.89
2017-07-29T03:00:33.063Z,14.89
2017-07-29T03:01:33.383Z,14.93
2017-07-29T03:02:33.045Z,14.87
2017-07-29T03:03:33.358Z,14.85
2017-07-29T03:04:33.356Z,14.86
2017-07-29T03:05:33.032Z,14.8
2017-07-29T03:06:33.356Z,14.83
2017-07-29T03:07:33.354Z,14.89
2017-07-29T03:08:33.044Z,14.83
2017-07-29T03:09:33.336Z,14.79
2017-07-29T03:10:33.022Z,14.82
2017-07-29T03:11:32.999Z,14.86
2017-07-29T03:12:33.334Z,14.83
2017-07-29T03:13:33.310Z,14.8
2017-07-29T03:14:33.310Z,14.85
2017-07-29T03:15:33.306Z,14.85
2017-07-29T03:16:33.303Z,14.74
2017-07-29T03:17:32.650Z,14.82
2017-07-29T03:18:33.285Z,14.7
2017-07-29T03:19:32.994Z,14.75
2017-07-29T03:20:32.954Z,14.74
2017-07-29T03:21:33.272Z,14.69
2017-07-29T03:22:33.262Z,14.71
2017-07-29T03:23:32.965Z,14.67
2017-07-29T03:24:32.614Z,14.67
2017-07-29T03:25:32.930Z,14.69
2017-07-29T03:26:32.932Z,14.63
2017-07-29T03:27:32.930Z,14.66
2017-07-29T03:28:33.261Z,14.69
2017-07-29T03:29:33.248Z,14.79
2017-07-29T03:30:32.905Z,14.69
2017-07-29T03:31:33.225Z,14.67
2017-07-29T03:32:33.216Z,14.69
2017-07-29T03:33:32.895Z,14.71
2017-07-29T03:34:33.221Z,14.8
2017-07-29T03:35:33.201Z,14.86
2017-07-29T03:36:33.213Z,14.83
2017-07-29T03:37:33.196Z,14.69
2017-07-29T03:38:33.195Z,14.86
2017-07-29T03:39:32.871Z,14.85
2017-07-29T03:40:32.881Z,14.8
2017-07-29T03:41:32.871Z,14.85
2017-07-29T03:42:32.866Z,14.85
2017-07-29T03:43:33.172Z,14.8
2017-07-29T03:44:33.160Z,14.86
2017-07-29T03:45:33.150Z,14.85
2017-07-29T03:46:33.147Z,14.86
2017-07-29T03:47:32.830Z,14.86
2017-07-29T03:48:32.819Z,14.82
2017-07-29T03:49:32.835Z,14.82
2017-07-29T03:50:33.126Z,14.86
2017-07-29T03:51:33.125Z,14.86
2017-07-29T03:52:33.119Z,14.89
2017-07-29T03:53:33.117Z,14.93
2017-07-29T03:54:33.106Z,14.94
2017-07-29T03:55:33.108Z,14.9
2017-07-29T03:56:33.095Z,14.93
2017-07-29T03:57:32.767Z,14.97
2017-07-29T03:58:32.450Z,14.97
2017-07-29T03:59:32.760Z,15.04
2017-07-29T04:00:32.758Z,15.08
2017-07-29T04:01:33.088Z,15.05
2017-07-29T04:02:32.747Z,15.05
2017-07-29T04:03:33.081Z,15.07
2017-07-29T04:04:33.076Z,15.02
2017-07-29T04:05:33.051Z,15.02
2017-07-29T04:06:33.063Z,15.02
2017-07-29T04:07:32.720Z,15.01
2017-07-29T04:08:33.059Z,15.08
2017-07-29T04:09:33.036Z,15.01
2017-07-29T04:10:33.027Z,15.02
2017-07-29T04:11:32.701Z,15.04
2017-07-29T04:12:32.698Z,15.04
2017-07-29T04:13:32.703Z,15.02
2017-07-29T04:14:32.693Z,15.04
2017-07-29T04:15:33.027Z,15.01
2017-07-29T04:16:32.996Z,15.02
2017-07-29T04:17:32.670Z,15.05
2017-07-29T04:18:33.005Z,15.08
2017-07-29T04:19:32.671Z,15.05
2017-07-29T04:20:32.658Z,15
2017-07-29T04:21:32.657Z,15.19
2017-07-29T04:22:32.973Z,15.18
2017-07-29T04:23:32.966Z,15.25
2017-07-29T04:24:32.663Z,15.31
2017-07-29T04:25:32.949Z,15.41
2017-07-29T04:26:32.977Z,15.4
2017-07-29T04:27:32.946Z,15.4
2017-07-29T04:28:32.622Z,15.55
2017-07-29T04:29:32.934Z,15.59
2017-07-29T04:30:32.931Z,15.7
2017-07-29T04:31:32.604Z,15.65
2017-07-29T04:32:32.942Z,15.75
2017-07-29T04:33:32.598Z,15.74
2017-07-29T04:34:32.913Z,15.93
2017-07-29T04:35:32.590Z,15.8
2017-07-29T04:36:32.903Z,15.93
2017-07-29T04:37:32.603Z,15.99
2017-07-29T04:38:32.899Z,16.07
2017-07-29T04:39:32.922Z,16.08
2017-07-29T04:40:32.564Z,16.11
2017-07-29T04:41:32.882Z,16.18
2017-07-29T04:42:32.879Z,16.22
2017-07-29T04:43:32.870Z,16.29
2017-07-29T04:44:32.548Z,16.29
2017-07-29T04:45:32.876Z,16.25
2017-07-29T04:46:32.882Z,16.32
2017-07-29T04:47:32.867Z,16.27
2017-07-29T04:48:32.858Z,16.21
2017-07-29T04:49:32.547Z,16.14
2017-07-29T04:50:32.873Z,16.27
2017-07-29T04:51:32.518Z,16.16
2017-07-29T04:52:32.830Z,16.11
2017-07-29T04:53:32.836Z,16.08
2017-07-29T04:54:32.511Z,16.02
2017-07-29T04:55:32.816Z,15.99
2017-07-29T04:56:32.198Z,15.91
2017-07-29T04:57:32.813Z,15.93
2017-07-29T04:58:32.814Z,15.83
2017-07-29T04:59:32.506Z,15.91
2017-07-29T05:00:32.484Z,15.81
2017-07-29T05:01:32.818Z,15.96
2017-07-29T05:02:32.473Z,15.96
2017-07-29T05:03:32.799Z,16.06
2017-07-29T05:04:32.806Z,16.18
2017-07-29T05:05:32.458Z,16.17
2017-07-29T05:06:32.455Z,16.29
2017-07-29T05:07:32.792Z,16.3
2017-07-29T05:08:32.836Z,16.3
2017-07-29T05:09:32.769Z,16.32
2017-07-29T05:10:32.764Z,16.33
2017-07-29T05:11:32.763Z,16.36
2017-07-29T05:12:32.430Z,16.44
2017-07-29T05:13:32.763Z,16.45
2017-07-29T05:14:32.767Z,16.45
2017-07-29T05:15:32.755Z,16.49
2017-07-29T05:16:32.740Z,16.49
2017-07-29T05:17:32.422Z,16.48
2017-07-29T05:18:32.409Z,16.48
2017-07-29T05:19:32.408Z,16.44
2017-07-29T05:20:32.719Z,16.48
2017-07-29T05:21:32.415Z,16.39
2017-07-29T05:22:32.394Z,16.39
2017-07-29T05:23:32.391Z,16.33
2017-07-29T05:24:32.731Z,16.29
2017-07-29T05:25:32.382Z,16.42
2017-07-29T05:26:32.698Z,16.36
2017-07-29T05:27:32.694Z,16.29
2017-07-29T05:28:32.398Z,16.33
2017-07-29T05:29:32.689Z,16.22
2017-07-29T05:30:32.360Z,16.3
2017-07-29T05:31:32.707Z,16.33
2017-07-29T05:32:32.675Z,16.18
2017-07-29T05:33:32.683Z,16.32
2017-07-29T05:34:32.667Z,16.3
2017-07-29T05:35:32.345Z,16.29
2017-07-29T05:36:32.337Z,16.29
2017-07-29T05:37:32.677Z,16.32
2017-07-29T05:38:32.672Z,16.32
2017-07-29T05:39:32.670Z,16.27
2017-07-29T05:40:32.665Z,16.34
2017-07-29T05:41:32.332Z,16.32
2017-07-29T05:42:32.633Z,16.33
2017-07-29T05:43:32.635Z,16.34
2017-07-29T05:44:32.646Z,16.37
2017-07-29T05:45:32.625Z,16.42
2017-07-29T05:46:32.638Z,16.45
2017-07-29T05:47:32.304Z,16.36
2017-07-29T05:48:32.304Z,16.42
2017-07-29T05:49:32.629Z,16.42
2017-07-29T05:50:32.287Z,16.42
2017-07-29T05:51:31.960Z,16.39
2017-07-29T05:52:32.624Z,16.47
2017-07-29T05:53:32.287Z,16.52
2017-07-29T05:54:32.590Z,16.4
2017-07-29T05:55:32.744Z,16.47
2017-07-29T05:56:32.588Z,16.52
2017-07-29T05:57:32.582Z,16.51
2017-07-29T05:58:32.254Z,16.51
2017-07-29T05:59:32.253Z,16.62
2017-07-29T06:00:32.568Z,16.55
2017-07-29T06:01:32.248Z,16.51
2017-07-29T06:02:32.263Z,16.65
2017-07-29T06:03:32.567Z,16.69
2017-07-29T06:04:32.584Z,16.72
2017-07-29T06:05:32.230Z,16.73
2017-07-29T06:06:32.568Z,16.77
2017-07-29T06:07:32.227Z,16.88
2017-07-29T06:08:32.537Z,16.92
2017-07-29T06:09:32.230Z,16.94
2017-07-29T06:10:32.547Z,17
2017-07-29T06:11:32.231Z,17.02
2017-07-29T06:12:32.522Z,17.05
2017-07-29T06:13:32.207Z,17.15
2017-07-29T06:14:32.195Z,17.06
2017-07-29T06:15:32.548Z,17.22
2017-07-29T06:16:32.221Z,17.22
2017-07-29T06:17:32.211Z,17.27
2017-07-29T06:18:32.184Z,17.36
2017-07-29T06:19:32.530Z,17.3
2017-07-29T06:20:32.539Z,17.31
2017-07-29T06:21:32.494Z,17.4
2017-07-29T06:22:32.491Z,17.46
2017-07-29T06:23:33.591Z,17.46
2017-07-29T06:24:31.842Z,17.43
2017-07-29T06:25:32.163Z,17.57
2017-07-29T06:26:32.156Z,17.54
2017-07-29T06:27:32.475Z,17.5
2017-07-29T06:28:32.473Z,17.6
2017-07-29T06:29:32.146Z,17.63
2017-07-29T06:30:32.467Z,17.65
2017-07-29T06:31:32.170Z,17.68
2017-07-29T06:32:32.459Z,17.69
2017-07-29T06:33:32.454Z,17.68
2017-07-29T06:34:32.459Z,17.74
2017-07-29T06:35:32.457Z,17.76
2017-07-29T06:36:32.125Z,17.81
2017-07-29T06:37:32.444Z,17.94
2017-07-29T06:38:32.447Z,18.02
2017-07-29T06:39:31.813Z,18.16
2017-07-29T06:40:32.115Z,18.27
2017-07-29T06:41:31.792Z,18.27
2017-07-29T06:42:32.111Z,18.35
2017-07-29T06:43:32.122Z,18.29
2017-07-29T06:44:32.452Z,18.44
2017-07-29T06:45:32.424Z,18.65
2017-07-29T06:46:32.420Z,18.79
2017-07-29T06:47:32.461Z,18.94
2017-07-29T06:48:32.431Z,19.28
2017-07-29T06:49:32.414Z,19.7
2017-07-29T06:50:32.405Z,20.4
2017-07-29T06:51:32.087Z,21.27
2017-07-29T06:52:32.407Z,21.82
2017-07-29T06:53:32.093Z,22.08
2017-07-29T06:54:32.401Z,22.23
2017-07-29T06:55:32.407Z,22.61
2017-07-29T06:56:32.080Z,23.1
2017-07-29T06:57:32.076Z,23.57
2017-07-29T06:58:32.079Z,24.19
2017-07-29T06:59:32.397Z,24.64
2017-07-29T07:00:32.086Z,24.97
2017-07-29T07:01:32.079Z,25.29
2017-07-29T07:02:32.081Z,25.6
2017-07-29T07:03:31.762Z,25.88
2017-07-29T07:04:32.425Z,26.09
2017-07-29T07:05:32.404Z,26.39
2017-07-29T07:06:32.081Z,26.52
2017-07-29T07:07:32.429Z,26.81
2017-07-29T07:08:31.790Z,27.15
2017-07-29T07:09:32.407Z,27.48
2017-07-29T07:10:32.405Z,27.51
2017-07-29T07:11:32.414Z,27.59
2017-07-29T07:12:32.095Z,27.69
2017-07-29T07:13:32.427Z,27.86
2017-07-29T07:14:32.418Z,27.96
2017-07-29T07:15:32.106Z,28.16
2017-07-29T07:16:32.108Z,28.43
2017-07-29T07:17:32.127Z,28.78
2017-07-29T07:18:32.433Z,28.88
2017-07-29T07:19:32.123Z,29.01
2017-07-29T07:20:32.466Z,28.94
2017-07-29T07:21:32.150Z,29.1
2017-07-29T07:22:32.135Z,29.32
2017-07-29T07:23:32.157Z,29.65
2017-07-29T07:24:32.488Z,29.61
2017-07-29T07:25:32.146Z,29.73
2017-07-29T07:26:32.166Z,29.87
2017-07-29T07:27:32.507Z,29.98
2017-07-29T07:28:32.479Z,30.22
2017-07-29T07:29:32.489Z,30.32
2017-07-29T07:30:32.501Z,30.22
2017-07-29T07:31:32.522Z,30.21
2017-07-29T07:32:32.503Z,30.04
2017-07-29T07:33:32.510Z,29.87
2017-07-29T07:34:32.522Z,29.79
2017-07-29T07:35:31.877Z,29.69
2017-07-29T07:36:32.206Z,29.89
2017-07-29T07:37:32.556Z,30.02
2017-07-29T07:38:32.223Z,30.18
2017-07-29T07:39:32.546Z,30.42
2017-07-29T07:40:32.556Z,30.42
2017-07-29T07:41:32.820Z,30.4
2017-07-29T07:42:32.563Z,30.67
2017-07-29T07:43:32.769Z,30.78
2017-07-29T07:44:32.273Z,30.79
2017-07-29T07:45:32.267Z,30.78
2017-07-29T07:46:32.593Z,30.69
2017-07-29T07:47:32.615Z,30.75
2017-07-29T07:48:31.980Z,30.86
2017-07-29T07:49:32.295Z,30.91
2017-07-29T07:50:32.300Z,30.86
2017-07-29T07:51:32.651Z,30.88
2017-07-29T07:52:32.337Z,30.82
2017-07-29T07:53:32.320Z,30.94
2017-07-29T07:54:32.658Z,30.94
2017-07-29T07:55:32.666Z,30.86
2017-07-29T07:56:32.678Z,30.81
2017-07-29T07:57:32.667Z,30.84
2017-07-29T07:58:32.360Z,30.93
2017-07-29T07:59:32.701Z,31.13
2017-07-29T08:00:32.386Z,31.31
2017-07-29T08:01:32.372Z,31.67
2017-07-29T08:02:32.707Z,31.59
2017-07-29T08:03:32.713Z,30.93
2017-07-29T08:04:32.710Z,30.04
2017-07-29T08:05:32.411Z,29.36
2017-07-29T08:06:32.402Z,28.48
2017-07-29T08:07:32.727Z,27.76
2017-07-29T08:08:32.735Z,27.05
2017-07-29T08:09:32.737Z,26.5
2017-07-29T08:10:32.786Z,25.91
2017-07-29T08:11:32.762Z,25.26
2017-07-29T08:12:32.431Z,24.82
2017-07-29T08:13:32.757Z,24.51
2017-07-29T08:14:32.761Z,24.33
2017-07-29T08:15:32.772Z,24.36
2017-07-29T08:16:32.460Z,24.45
2017-07-29T08:17:32.774Z,24.45
2017-07-29T08:18:32.780Z,24.39
2017-07-29T08:19:32.480Z,24.34
2017-07-29T08:20:32.471Z,24.36
2017-07-29T08:21:32.477Z,24.39
2017-07-29T08:22:32.154Z,24.33
2017-07-29T08:23:32.813Z,24.19
2017-07-29T08:24:32.801Z,24.27
2017-07-29T08:25:32.806Z,24.21
2017-07-29T08:26:32.513Z,24
2017-07-29T08:27:32.184Z,23.74
2017-07-29T08:28:32.489Z,23.57
2017-07-29T08:29:32.495Z,23.34
2017-07-29T08:30:32.696Z,23.1
2017-07-29T08:31:32.832Z,22.99
2017-07-29T08:32:32.178Z,22.61
2017-07-29T08:33:32.526Z,22.42
2017-07-29T08:34:32.830Z,22.31
2017-07-29T08:35:32.202Z,22.07
2017-07-29T08:36:32.829Z,22.07
2017-07-29T08:37:32.834Z,21.94
2017-07-29T08:38:32.831Z,21.86
2017-07-29T08:39:32.520Z,21.73
2017-07-29T08:40:32.522Z,21.62
2017-07-29T08:41:32.219Z,21.62
2017-07-29T08:42:32.521Z,21.59
2017-07-29T08:43:32.844Z,21.67
2017-07-29T08:44:32.850Z,21.78
2017-07-29T08:45:32.850Z,22.04
2017-07-29T08:46:32.202Z,22.22
2017-07-29T08:47:32.847Z,22.33
2017-07-29T08:48:32.862Z,22.42
2017-07-29T08:49:32.854Z,22.44
2017-07-29T08:50:32.876Z,22.38
2017-07-29T08:51:32.869Z,22.33
2017-07-29T08:52:32.876Z,22.24
2017-07-29T08:53:32.861Z,22.11
2017-07-29T08:54:32.539Z,22.08
2017-07-29T08:55:32.228Z,22.11
2017-07-29T08:56:32.868Z,22.12
2017-07-29T08:57:32.902Z,22.34
2017-07-29T08:58:32.541Z,22.66
2017-07-29T08:59:32.876Z,22.88
2017-07-29T09:00:32.865Z,23.04
2017-07-29T09:01:32.542Z,23.03
2017-07-29T09:02:32.875Z,22.86
2017-07-29T09:03:32.891Z,22.59
2017-07-29T09:04:32.545Z,22.42
2017-07-29T09:05:32.550Z,22.22
2017-07-29T09:06:32.865Z,21.96
2017-07-29T09:07:32.875Z,21.74
2017-07-29T09:08:32.582Z,21.59
2017-07-29T09:09:32.877Z,21.53
2017-07-29T09:10:32.241Z,21.36
2017-07-29T09:11:32.554Z,21.43
2017-07-29T09:12:32.555Z,21.41
2017-07-29T09:13:32.890Z,21.36
2017-07-29T09:14:32.879Z,21.59
2017-07-29T09:15:32.562Z,21.71
2017-07-29T09:16:32.885Z,21.89
2017-07-29T09:17:32.558Z,21.99
2017-07-29T09:18:32.890Z,22.2
2017-07-29T09:19:32.556Z,22.38
2017-07-29T09:20:32.559Z,22.57
2017-07-29T09:21:32.565Z,22.61
2017-07-29T09:22:32.574Z,22.76
2017-07-29T09:23:32.926Z,23.01
2017-07-29T09:24:32.886Z,23.28
2017-07-29T09:25:32.883Z,23.41
2017-07-29T09:26:32.899Z,23.48
2017-07-29T09:27:32.595Z,23.52
2017-07-29T09:28:32.582Z,23.62
2017-07-29T09:29:32.639Z,23.42
2017-07-29T09:30:32.577Z,23.25
2017-07-29T09:31:32.919Z,23.19
2017-07-29T09:32:32.898Z,22.96
2017-07-29T09:33:32.578Z,22.75
2017-07-29T09:34:32.904Z,22.55
2017-07-29T09:35:32.284Z,22.33
2017-07-29T09:36:32.905Z,22.08
2017-07-29T09:37:32.602Z,21.97
2017-07-29T09:38:32.917Z,21.76
2017-07-29T09:39:32.937Z,21.56
2017-07-29T09:40:32.616Z,21.37
2017-07-29T09:41:32.590Z,21.31
2017-07-29T09:42:32.587Z,21.27
2017-07-29T09:43:32.947Z,21.28
2017-07-29T09:44:32.907Z,21.25
2017-07-29T09:45:32.276Z,21.38
2017-07-29T09:46:32.269Z,21.41
2017-07-29T09:47:32.587Z,21.48
2017-07-29T09:48:32.918Z,21.67
2017-07-29T09:49:32.597Z,21.77
2017-07-29T09:50:32.920Z,21.9
2017-07-29T09:51:32.593Z,22.08
2017-07-29T09:52:32.922Z,22.08
2017-07-29T09:53:32.913Z,22.15
2017-07-29T09:54:32.913Z,22.23
2017-07-29T09:55:32.920Z,22.33
2017-07-29T09:56:32.597Z,22.49
2017-07-29T09:57:32.924Z,22.52
2017-07-29T09:58:32.602Z,22.71
2017-07-29T09:59:32.923Z,22.75
2017-07-29T10:00:32.284Z,22.89
2017-07-29T10:01:32.926Z,22.97
2017-07-29T10:02:32.923Z,23.01
2017-07-29T10:03:32.634Z,23.06
2017-07-29T10:04:32.620Z,22.88
2017-07-29T10:05:32.602Z,22.73
2017-07-29T10:06:32.613Z,22.78
2017-07-29T10:07:32.951Z,22.64
2017-07-29T10:08:32.289Z,22.66
2017-07-29T10:09:32.943Z,22.63
2017-07-29T10:10:32.953Z,22.54
2017-07-29T10:11:32.614Z,22.55
2017-07-29T10:12:32.961Z,22.57
2017-07-29T10:13:32.315Z,22.57
2017-07-29T10:14:32.637Z,22.52
2017-07-29T10:15:32.974Z,22.54
2017-07-29T10:16:32.636Z,22.57
2017-07-29T10:17:32.315Z,22.49
2017-07-29T10:18:32.948Z,22.55
2017-07-29T10:19:32.955Z,22.52
2017-07-29T10:20:32.624Z,22.48
2017-07-29T10:21:32.962Z,22.51
2017-07-29T10:22:32.952Z,22.67
2017-07-29T10:23:32.982Z,22.79
2017-07-29T10:24:32.961Z,22.89
2017-07-29T10:25:32.964Z,22.97
2017-07-29T10:26:39.457Z,23.03
2017-07-29T10:27:32.333Z,23.04
2017-07-29T10:28:32.959Z,23.07
2017-07-29T10:29:32.962Z,23
2017-07-29T10:30:32.955Z,23.14
2017-07-29T10:31:32.633Z,23.21
2017-07-29T10:32:32.972Z,23.21
2017-07-29T10:33:32.637Z,23.15
2017-07-29T10:34:32.959Z,23
2017-07-29T10:35:32.645Z,23.04
2017-07-29T10:36:32.968Z,23.18
2017-07-29T10:37:32.972Z,23.26
2017-07-29T10:38:32.671Z,23.37
2017-07-29T10:39:32.672Z,23.44
2017-07-29T10:40:32.646Z,23.53
2017-07-29T10:41:32.994Z,23.74
2017-07-29T10:42:32.334Z,23.85
2017-07-29T10:43:32.993Z,23.94
2017-07-29T10:44:32.986Z,24.08
2017-07-29T10:45:32.660Z,24.19
2017-07-29T10:46:32.986Z,24.21
2017-07-29T10:47:33.014Z,24.11
2017-07-29T10:48:32.705Z,23.99
2017-07-29T10:49:32.984Z,24.22
2017-07-29T10:50:32.996Z,24.29
2017-07-29T10:51:33.027Z,24.33
2017-07-29T10:52:32.695Z,24.48
2017-07-29T10:53:32.359Z,24.77
2017-07-29T10:54:32.682Z,24.69
2017-07-29T10:55:32.369Z,24.96
2017-07-29T10:56:33.001Z,24.89
2017-07-29T10:57:32.691Z,24.82
2017-07-29T10:58:32.692Z,24.71
2017-07-29T10:59:32.723Z,24.52
2017-07-29T11:00:32.378Z,24.36
2017-07-29T11:01:32.709Z,24.12
2017-07-29T11:02:32.697Z,23.82
2017-07-29T11:03:33.038Z,23.53
2017-07-29T11:04:33.024Z,23.4
2017-07-29T11:05:32.710Z,23.28
2017-07-29T11:06:32.709Z,23.15
2017-07-29T11:07:33.033Z,23.06
2017-07-29T11:08:32.732Z,23.1
2017-07-29T11:09:32.717Z,23.32
2017-07-29T11:10:32.719Z,23.48
2017-07-29T11:11:33.037Z,23.62
2017-07-29T11:12:33.058Z,23.77
2017-07-29T11:13:33.045Z,23.89
2017-07-29T11:14:33.063Z,23.99
2017-07-29T11:15:33.058Z,24.15
2017-07-29T11:16:33.067Z,24.27
2017-07-29T11:17:33.055Z,24.29
2017-07-29T11:18:33.060Z,24.39
2017-07-29T11:19:33.060Z,24.4
2017-07-29T11:20:33.080Z,24.4
2017-07-29T11:21:33.066Z,24.48
2017-07-29T11:22:32.449Z,24.42
2017-07-29T11:23:32.768Z,24.42
2017-07-29T11:24:32.756Z,24.39
2017-07-29T11:25:33.111Z,24.4
2017-07-29T11:26:33.072Z,24.42
2017-07-29T11:27:33.072Z,24.33
2017-07-29T11:28:33.076Z,24.34
2017-07-29T11:29:33.111Z,24.36
2017-07-29T11:30:32.767Z,24.42
2017-07-29T11:31:33.088Z,24.58
2017-07-29T11:32:33.089Z,24.56
2017-07-29T11:33:33.089Z,24.56
2017-07-29T11:34:32.774Z,24.66
2017-07-29T11:35:32.821Z,24.64
2017-07-29T11:36:33.089Z,24.48
2017-07-29T11:37:33.105Z,24.52
2017-07-29T11:38:33.113Z,24.4
2017-07-29T11:39:33.109Z,24.45
2017-07-29T11:40:33.108Z,24.44
2017-07-29T11:41:33.152Z,24.37
2017-07-29T11:42:33.130Z,24.29
2017-07-29T11:43:33.187Z,24.33
2017-07-29T11:44:33.133Z,24.33
2017-07-29T11:45:33.122Z,24.34
2017-07-29T11:46:33.169Z,24.32
2017-07-29T11:47:33.126Z,24.39
2017-07-29T11:48:33.121Z,24.39
2017-07-29T11:49:33.122Z,24.42
2017-07-29T11:50:33.150Z,24.45
2017-07-29T11:51:33.180Z,24.48
2017-07-29T11:52:32.810Z,24.61
2017-07-29T11:53:32.926Z,24.67
2017-07-29T11:54:32.496Z,24.92
2017-07-29T11:55:33.146Z,24.92
2017-07-29T11:56:32.822Z,24.9
2017-07-29T11:57:33.165Z,24.74
2017-07-29T11:58:32.822Z,24.69
2017-07-29T11:59:33.159Z,24.56
2017-07-29T12:00:33.156Z,24.42
2017-07-29T12:01:32.854Z,24.55
2017-07-29T12:02:33.158Z,24.48
2017-07-29T12:03:32.844Z,24.58
2017-07-29T12:04:33.164Z,24.61
2017-07-29T12:05:32.840Z,24.67
2017-07-29T12:06:32.842Z,24.86
2017-07-29T12:07:33.195Z,25.04
2017-07-29T12:08:33.185Z,25.08
2017-07-29T12:09:33.216Z,25.09
2017-07-29T12:10:33.194Z,25.08
2017-07-29T12:11:33.182Z,25.11
2017-07-29T12:12:33.183Z,25.04
2017-07-29T12:13:32.875Z,25.09
2017-07-29T12:14:33.196Z,24.83
2017-07-29T12:15:32.890Z,24.9
2017-07-29T12:16:33.199Z,24.89
2017-07-29T12:17:32.551Z,24.85
2017-07-29T12:18:33.200Z,24.83
2017-07-29T12:19:32.881Z,24.93
2017-07-29T12:20:32.909Z,24.86
2017-07-29T12:21:33.225Z,24.82
2017-07-29T12:22:33.229Z,24.67
2017-07-29T12:23:33.211Z,24.66
2017-07-29T12:24:33.220Z,24.7
2017-07-29T12:25:33.227Z,24.69
2017-07-29T12:26:32.913Z,24.59
2017-07-29T12:27:33.225Z,24.54
2017-07-29T12:28:33.221Z,24.49
2017-07-29T12:29:32.903Z,24.46
2017-07-29T12:30:33.244Z,24.46
2017-07-29T12:31:33.160Z,24.39
2017-07-29T12:32:33.235Z,24.3
2017-07-29T12:33:32.936Z,24.33
2017-07-29T12:34:32.936Z,24.44
2017-07-29T12:35:33.246Z,24.36
2017-07-29T12:36:32.613Z,24.3
2017-07-29T12:37:32.926Z,24.32
2017-07-29T12:38:32.929Z,24.34
2017-07-29T12:39:33.281Z,24.4
2017-07-29T12:40:33.279Z,24.36
2017-07-29T12:41:32.940Z,24.36
2017-07-29T12:42:32.939Z,24.36
2017-07-29T12:43:34.189Z,24.3
2017-07-29T12:44:32.951Z,24.29
2017-07-29T12:45:32.948Z,24.26
2017-07-29T12:46:33.277Z,24.19
2017-07-29T12:47:32.641Z,24.21
2017-07-29T12:48:32.960Z,24.18
2017-07-29T12:49:32.989Z,24.29
2017-07-29T12:50:33.292Z,24.37
2017-07-29T12:51:33.302Z,24.37
2017-07-29T12:52:32.963Z,24.52
2017-07-29T12:53:32.971Z,24.34
2017-07-29T12:54:32.970Z,24.55
2017-07-29T12:55:33.294Z,24.4